Time;durP1;ratioP1;P1;durP2;ratioP2;P2;SDS_P1;SDS_P2;PMS_P1;PMS_P2;Temp;Humidity;BMP_temperature;BMP_pressure;BME280_temperature;BME280_humidity;BME280_pressure;Samples;Min_cycle;Max_cycle;Signal;HPM_P1;HPM_P2
2023/06/28 00:03:18;;;;;;;3.38;1.08;;;;;;;18.55;41.41;100779.28;20806279;28;20564;-79
2023/06/28 00:13:21;;;;;;;2.08;1.00;;;;;;;18.72;41.29;100785.75;20795258;28;20216;-79
2023/06/28 00:23:24;;;;;;;3.25;1.23;;;;;;;18.75;41.53;100787.84;20791681;28;20200;-79
2023/06/28 00:33:26;;;;;;;4.78;1.05;;;;;;;18.23;42.23;100789.91;20787803;28;20876;-79
2023/06/28 00:43:29;;;;;;;3.90;1.13;;;;;;;18.16;42.77;100791.78;20802040;28;20204;-79
2023/06/28 00:53:31;;;;;;;4.53;1.20;;;;;;;18.24;42.75;100799.28;20808132;28;20221;-79
2023/06/28 01:03:35;;;;;;;5.03;1.08;;;;;;;18.11;43.67;100798.56;20798121;28;20232;-79
2023/06/28 01:13:38;;;;;;;3.20;0.90;;;;;;;18.01;43.43;100798.31;20767844;28;20220;-80
2023/06/28 01:23:41;;;;;;;3.17;0.80;;;;;;;17.92;44.45;100807.84;20753682;28;20609;-79
2023/06/28 01:33:46;;;;;;;5.63;1.55;;;;;;;18.04;43.99;100800.41;20772688;28;20282;-79
2023/06/28 01:43:49;;;;;;;1.97;1.00;;;;;;;17.67;44.46;100817.72;20766605;28;20223;-80
2023/06/28 01:53:51;;;;;;;4.82;1.08;;;;;;;17.67;45.51;100817.72;20784460;28;20208;-80
2023/06/28 02:03:54;;;;;;;4.45;1.20;;;;;;;17.31;46.76;100810.22;20801294;28;20220;-80
2023/06/28 02:13:57;;;;;;;3.13;1.13;;;;;;;17.55;46.17;100817.78;20771847;28;20243;-80
2023/06/28 02:23:59;;;;;;;5.32;1.52;;;;;;;17.12;48.23;100816.59;20801811;28;20197;-80
2023/06/28 02:34:02;;;;;;;8.60;1.30;;;;;;;17.19;47.30;100813.94;20783000;28;20283;-80
2023/06/28 02:44:04;;;;;;;5.10;1.38;;;;;;;17.13;47.59;100797.50;20798200;28;20260;-80
2023/06/28 02:54:07;;;;;;;3.50;1.17;;;;;;;16.72;49.87;100804.41;20797909;28;20297;-80
2023/06/28 03:04:12;;;;;;;4.90;1.30;;;;;;;16.94;47.81;100815.22;20760298;28;20224;-80
2023/06/28 03:14:15;;;;;;;3.58;1.33;;;;;;;16.29;50.84;100820.06;20775024;28;20494;-80
2023/06/28 03:24:18;;;;;;;2.88;1.10;;;;;;;16.97;48.54;100810.84;20801019;28;20564;-80
2023/06/28 03:34:21;;;;;;;3.60;1.50;;;;;;;16.90;48.72;100811.44;20810262;28;20223;-79
2023/06/28 03:44:23;;;;;;;6.28;1.67;;;;;;;17.50;46.83;100798.16;20799742;28;20205;-79
2023/06/28 03:54:26;;;;;;;8.68;1.30;;;;;;;17.33;46.37;100792.81;20783014;28;20255;-79
2023/06/28 04:04:29;;;;;;;5.33;1.93;;;;;;;17.42;46.57;100787.75;20786687;28;20228;-79
2023/06/28 04:14:32;;;;;;;5.05;1.45;;;;;;;17.77;45.94;100788.72;20784519;28;20220;-79
2023/06/28 04:24:38;;;;;;;3.05;1.40;;;;;;;17.37;48.13;100790.88;20792223;28;20229;-79
2023/06/28 04:34:40;;;;;;;5.37;1.83;;;;;;;17.45;48.04;100792.72;20801832;28;20568;-80
2023/06/28 04:44:43;;;;;;;4.97;2.13;;;;;;;17.06;47.73;100798.13;20775065;28;20227;-79
2023/06/28 04:54:46;;;;;;;4.82;2.20;;;;;;;17.26;48.51;100801.16;20778452;28;20216;-80
2023/06/28 05:04:49;;;;;;;3.67;1.60;;;;;;;17.31;47.99;100798.03;20770467;28;20228;-79
2023/06/28 05:14:53;;;;;;;4.45;1.80;;;;;;;17.52;47.89;100799.47;20770345;28;20224;-78
2023/06/28 05:24:56;;;;;;;4.07;1.77;;;;;;;17.28;47.15;100796.72;20778256;28;20201;-77
2023/06/28 05:34:58;;;;;;;5.07;2.15;;;;;;;17.15;47.11;100793.09;20805055;28;20243;-77
2023/06/28 05:45:00;;;;;;;5.83;2.63;;;;;;;18.33;45.45;100777.09;20760430;28;20232;-78
2023/06/28 05:55:05;;;;;;;8.05;2.22;;;;;;;17.29;47.01;100784.16;20805515;28;20490;-79
2023/06/28 06:05:08;;;;;;;3.47;1.60;;;;;;;18.26;45.31;100779.81;20743401;28;20654;-79
2023/06/28 06:15:11;;;;;;;8.40;4.80;;;;;;;17.71;45.67;100784.50;20760302;28;20621;-79
2023/06/28 06:25:13;;;;;;;7.90;4.90;;;;;;;18.73;43.89;100773.97;20758755;28;20196;-78
2023/06/28 06:35:16;;;;;;;4.63;2.28;;;;;;;18.35;45.15;100768.19;20777457;28;20274;-79
2023/06/28 06:45:19;;;;;;;7.05;3.72;;;;;;;18.78;43.25;100767.16;20770391;28;20196;-79
2023/06/28 06:55:23;;;;;;;9.52;3.78;;;;;;;19.29;42.46;100774.38;20759201;28;20247;-78
2023/06/28 07:05:27;;;;;;;6.95;2.67;;;;;;;18.14;43.94;100782.75;20763611;28;20213;-78
2023/06/28 07:15:30;;;;;;;7.18;2.20;;;;;;;18.24;43.83;100790.72;20807070;28;20209;-78
2023/06/28 07:25:32;;;;;;;3.85;1.58;;;;;;;19.17;39.85;100787.94;20810504;28;20363;-78
2023/06/28 07:35:36;;;;;;;3.63;0.90;;;;;;;19.47;37.91;100796.72;20818612;28;20224;-78
2023/06/28 07:45:40;;;;;;;3.63;1.17;;;;;;;19.11;39.49;100795.97;20801810;28;20294;-79
2023/06/28 07:55:43;;;;;;;4.72;0.95;;;;;;;18.74;39.65;100803.31;20808124;28;20224;-77
2023/06/28 08:05:46;;;;;;;3.50;1.10;;;;;;;18.43;40.15;100798.53;20725748;28;20283;-79
2023/06/28 08:15:52;;;;;;;2.90;1.20;;;;;;;18.25;41.69;100815.19;20707102;28;20310;-79
2023/06/28 08:25:54;;;;;;;4.80;1.60;;;;;;;19.14;40.62;100811.50;20703731;28;20270;-78
2023/06/28 08:35:57;;;;;;;4.00;1.50;;;;;;;18.79;42.10;100811.59;20674774;28;20256;-79
2023/06/28 08:45:59;;;;;;;4.60;1.45;;;;;;;19.49;40.58;100805.72;20699222;28;20220;-78
2023/06/28 08:56:03;;;;;;;3.47;1.52;;;;;;;19.87;39.49;100794.22;20667866;28;20558;-78
2023/06/28 09:06:06;;;;;;;4.45;1.27;;;;;;;19.35;39.20;100802.59;20751898;28;20505;-78
2023/06/28 09:16:10;;;;;;;2.33;0.90;;;;;;;19.48;38.51;100799.19;20768144;28;20220;-80
2023/06/28 09:26:13;;;;;;;2.15;0.77;;;;;;;19.01;40.39;100807.97;20773977;28;20615;-79
2023/06/28 09:36:16;;;;;;;3.15;0.70;;;;;;;20.62;39.16;100801.16;20741344;28;20221;-78
2023/06/28 09:46:19;;;;;;;3.08;1.10;;;;;;;20.44;38.33;100805.75;20755296;28;20254;-81
2023/06/28 09:56:35;;;;;;;9.73;5.25;;;;;;;19.40;42.68;100808.00;20810140;28;20248;-79
2023/06/28 10:06:38;;;;;;;1.88;1.23;;;;;;;19.84;45.66;100800.69;20782953;28;20227;-82
2023/06/28 10:16:41;;;;;;;5.13;1.98;;;;;;;19.75;43.42;100805.78;20798703;28;20240;-81
2023/06/28 10:26:44;;;;;;;4.57;1.80;;;;;;;21.06;41.17;100789.88;20753607;28;20613;-80
2023/06/28 10:36:47;;;;;;;6.30;1.60;;;;;;;20.95;41.49;100791.78;20771128;28;20696;-81
2023/06/28 10:47:12;;;;;;;6.93;1.77;;;;;;;20.64;41.84;100785.28;20766340;28;20193;-80
2023/06/28 10:57:15;;;;;;;5.00;1.92;;;;;;;20.15;42.19;100793.03;20801008;28;20414;-82
2023/06/28 11:07:23;;;;;;;3.28;2.03;;;;;;;20.25;41.57;100789.56;20828347;28;20502;-81
2023/06/28 11:17:31;;;;;;;8.57;3.45;;;;;;;20.58;41.34;100794.56;20789082;28;20220;-80
2023/06/28 11:27:40;;;;;;;6.13;3.90;;;;;;;20.44;42.19;100789.44;20799109;28;20281;-80
2023/06/28 11:37:42;;;;;;;4.63;2.78;;;;;;;20.63;41.52;100786.47;20805793;28;20277;-81
2023/06/28 11:47:46;;;;;;;8.43;2.88;;;;;;;19.34;43.88;100787.50;20806889;28;20204;-81
2023/06/28 11:57:48;;;;;;;5.20;2.53;;;;;;;20.41;42.24;100767.31;20801138;28;20593;-80
2023/06/28 12:07:51;;;;;;;7.13;2.70;;;;;;;19.64;44.78;100770.50;20840166;28;20255;-81
2023/06/28 12:17:53;;;;;;;10.48;3.65;;;;;;;20.60;41.81;100769.28;20826864;28;20703;-79
2023/06/28 12:28:02;;;;;;;7.65;2.78;;;;;;;20.12;43.29;100771.78;20812225;28;20489;-79
2023/06/28 12:38:05;;;;;;;6.50;2.55;;;;;;;21.07;41.47;100763.75;20804237;28;20259;-79
2023/06/28 12:48:08;;;;;;;7.78;2.50;;;;;;;21.08;41.98;100770.28;20802371;28;20204;-82
2023/06/28 12:58:10;;;;;;;9.38;2.97;;;;;;;20.69;41.53;100767.75;20834852;28;20225;-81
2023/06/28 13:08:13;;;;;;;10.40;2.60;;;;;;;21.62;39.99;100769.69;20769056;28;20295;-79
2023/06/28 13:18:15;;;;;;;7.55;2.72;;;;;;;20.53;41.42;100766.25;20798895;28;20224;-81
2023/06/28 13:28:18;;;;;;;6.72;2.28;;;;;;;20.82;40.55;100753.22;20773377;28;20666;-79
2023/06/28 13:38:20;;;;;;;8.13;2.58;;;;;;;20.76;41.20;100754.78;20797207;28;20580;-79
2023/06/28 13:48:23;;;;;;;5.70;2.33;;;;;;;20.44;41.58;100748.56;20770894;28;20192;-80
2023/06/28 13:58:26;;;;;;;10.80;2.88;;;;;;;21.66;39.25;100744.78;20809152;28;20231;-78
2023/06/28 14:08:29;;;;;;;9.05;3.00;;;;;;;21.15;40.59;100738.09;20714254;28;20622;-79
2023/06/28 14:18:31;;;;;;;9.50;2.25;;;;;;;22.14;38.49;100722.69;20678976;28;20252;-79
2023/06/28 14:28:34;;;;;;;6.97;2.60;;;;;;;22.14;38.01;100721.84;20700027;28;20200;-80
2023/06/28 14:38:36;;;;;;;8.90;2.50;;;;;;;22.63;37.42;100727.09;20682599;28;20229;-80
2023/06/28 14:48:39;;;;;;;9.07;2.47;;;;;;;23.03;36.88;100710.88;20708859;28;20209;-79
2023/06/28 14:58:41;;;;;;;8.00;2.38;;;;;;;22.38;39.07;100715.47;20712445;28;20645;-79
2023/06/28 15:08:44;;;;;;;7.03;2.45;;;;;;;22.01;38.87;100712.75;20750618;28;20286;-80
2023/06/28 15:18:47;;;;;;;9.57;3.05;;;;;;;21.36;40.89;100713.41;20764459;28;20220;-79
2023/06/28 15:28:50;;;;;;;7.30;2.80;;;;;;;22.00;38.67;100695.97;20743370;28;20247;-79
2023/06/28 15:38:53;;;;;;;7.80;2.60;;;;;;;22.06;39.52;100680.88;20773275;28;20228;-79
2023/06/28 15:48:56;;;;;;;8.10;2.88;;;;;;;21.38;40.58;100690.09;20777439;28;20255;-78
2023/06/28 15:58:58;;;;;;;7.30;2.80;;;;;;;22.04;39.70;100674.72;20780184;28;20282;-80
2023/06/28 16:09:03;;;;;;;12.60;5.07;;;;;;;21.82;40.06;100680.69;20768110;28;20216;-79
2023/06/28 16:19:05;;;;;;;7.40;3.13;;;;;;;21.43;40.57;100675.44;20776950;28;20220;-80
2023/06/28 16:29:08;;;;;;;7.82;3.28;;;;;;;22.18;40.11;100664.56;20770356;28;20224;-77
2023/06/28 16:39:10;;;;;;;10.65;3.05;;;;;;;21.81;41.08;100656.97;20815870;28;20228;-77
2023/06/28 16:49:13;;;;;;;8.18;3.50;;;;;;;21.29;41.16;100653.22;20792689;28;20259;-81
2023/06/28 16:59:16;;;;;;;9.85;3.05;;;;;;;21.82;40.05;100660.66;20752570;28;20248;-77
2023/06/28 17:09:19;;;;;;;8.77;3.15;;;;;;;22.78;39.68;100651.31;20752180;28;20255;-78
2023/06/28 17:19:21;;;;;;;7.47;3.15;;;;;;;22.17;39.53;100660.03;20782872;28;20255;-80
2023/06/28 17:29:24;;;;;;;6.28;2.80;;;;;;;21.85;40.26;100654.91;20762994;28;20223;-82
2023/06/28 17:39:28;;;;;;;8.35;2.88;;;;;;;21.27;41.33;100652.78;20769896;28;20247;-77
2023/06/28 17:49:31;;;;;;;8.30;2.97;;;;;;;21.93;40.71;100648.03;20784992;28;20270;-79
2023/06/28 17:59:33;;;;;;;5.05;2.92;;;;;;;22.02;40.92;100651.34;20771956;28;20286;-79
2023/06/28 18:09:36;;;;;;;7.97;3.58;;;;;;;21.68;40.63;100652.72;20830780;28;20293;-78
2023/06/28 18:19:42;;;;;;;7.10;2.72;;;;;;;21.58;42.84;100657.13;20808438;28;20224;-78
2023/06/28 18:29:46;;;;;;;6.55;3.22;;;;;;;21.68;41.22;100658.47;20782730;28;20208;-81
2023/06/28 18:39:49;;;;;;;6.35;2.78;;;;;;;21.99;40.21;100668.53;20792094;28;20289;-80
2023/06/28 18:49:51;;;;;;;8.45;2.78;;;;;;;22.05;40.47;100658.34;20799383;28;20200;-78
2023/06/28 18:59:55;;;;;;;6.65;3.03;;;;;;;22.36;40.24;100654.00;20762161;28;20244;-77
2023/06/28 19:10:00;;;;;;;7.85;2.88;;;;;;;22.28;39.74;100649.44;20775864;28;20282;-80
2023/06/28 19:20:03;;;;;;;5.97;2.55;;;;;;;22.20;41.11;100644.91;20828125;28;20616;-82
2023/06/28 19:30:06;;;;;;;8.35;2.95;;;;;;;22.44;40.66;100649.97;20833772;28;20184;-78
2023/06/28 19:40:09;;;;;;;6.40;3.20;;;;;;;21.99;42.37;100657.06;20777551;28;20739;-80
2023/06/28 19:50:12;;;;;;;5.82;3.00;;;;;;;21.96;42.06;100647.22;20763539;28;20204;-80
2023/06/28 20:00:15;;;;;;;6.88;2.95;;;;;;;22.10;41.58;100641.56;20793303;28;20269;-79
2023/06/28 20:10:18;;;;;;;6.65;3.38;;;;;;;21.97;41.46;100648.84;20752556;28;20666;-79
2023/06/28 20:20:21;;;;;;;7.97;3.97;;;;;;;21.61;43.24;100649.81;20727272;28;20244;-80
2023/06/28 20:30:24;;;;;;;9.30;3.88;;;;;;;21.36;43.89;100647.56;20735520;28;20271;-80
2023/06/28 20:40:27;;;;;;;5.32;3.42;;;;;;;20.86;45.85;100654.78;20712212;28;20290;-80
2023/06/28 20:50:30;;;;;;;9.05;3.45;;;;;;;20.94;45.41;100649.97;20698065;28;20263;-81
2023/06/28 21:00:32;;;;;;;9.90;3.88;;;;;;;21.54;44.25;100644.84;20701234;28;20299;-80
2023/06/28 21:10:37;;;;;;;6.90;3.83;;;;;;;20.87;46.25;100649.88;20672899;28;20275;-79
2023/06/28 21:20:40;;;;;;;6.28;3.30;;;;;;;21.19;46.31;100642.47;20682523;28;20634;-80
2023/06/28 21:30:42;;;;;;;8.27;3.67;;;;;;;20.80;46.68;100652.66;20670980;28;20323;-80
2023/06/28 21:40:46;;;;;;;4.97;3.33;;;;;;;21.12;45.14;100648.13;20679156;28;20225;-79
2023/06/28 21:50:49;;;;;;;6.95;3.78;;;;;;;21.06;45.29;100652.53;20726881;28;20225;-81
2023/06/28 22:00:52;;;;;;;8.85;3.28;;;;;;;20.85;45.95;100638.00;20676449;28;20291;-80
2023/06/28 22:10:55;;;;;;;7.15;3.80;;;;;;;20.91;46.00;100648.72;20763814;28;20533;-80
2023/06/28 22:21:00;;;;;;;6.60;3.67;;;;;;;20.32;47.02;100636.13;20787880;28;20244;-81
2023/06/28 22:31:03;;;;;;;5.15;3.60;;;;;;;20.61;46.85;100637.34;20747986;28;20244;-80
2023/06/28 22:41:05;;;;;;;8.07;4.05;;;;;;;20.43;47.57;100639.13;20775564;28;20715;-80
2023/06/28 22:51:08;;;;;;;4.88;3.13;;;;;;;20.86;46.69;100634.75;20777009;28;20243;-81
2023/06/28 23:01:11;;;;;;;8.25;3.85;;;;;;;20.77;47.44;100622.00;20759089;28;20251;-79
2023/06/28 23:11:13;;;;;;;10.93;4.00;;;;;;;20.99;46.64;100613.25;20737009;28;20208;-79
2023/06/28 23:21:16;;;;;;;8.30;4.72;;;;;;;20.98;47.03;100602.19;20767752;28;20310;-79
2023/06/28 23:31:20;;;;;;;7.10;3.83;;;;;;;20.69;48.27;100604.75;20732564;28;20355;-80
2023/06/28 23:41:22;;;;;;;9.18;4.40;;;;;;;20.70;47.67;100592.09;20742788;28;20315;-81
2023/06/28 23:51:25;;;;;;;5.35;3.88;;;;;;;20.50;47.75;100590.63;20763565;28;20554;-80
